Haskell, New Jersey
Current Conditions -  °F | °C
As of 12:53 AM on Wednesday 28 Jan 2015 (Local Time) from KCDW Reporting Station
Clear Clear  
Wind Chill:   Ceiling: Unl
Heat Index: 16°   Visibility: 10mi
Dew Point:   Wind: 8mph
Humidity: 49%   Direction: 320°NW
Pressure: 29.88"   Gusts: NA
Location:  41.03°N, 74.3°W
Report Text: KCDW 280553Z 32007KT 10SM CLR M09/M18 A2988 RMK AO2 SLP126 T10891178 11044 21089 51019
Loading
Personal Weather Stations






























Interactive Weather Map New forecast layout! Learn more

10-Day Weather Forecast

Advertisements
Track Severe Weather on mobile